sensor_id;sensor_type;location;lat;lon;timestamp;P1;durP1;ratioP1;P2;durP2;ratioP2
23802;SDS011;12082;51.786;6.018;2022-08-25T00:00:45;7.87;;;6.70;;
23802;SDS011;12082;51.786;6.018;2022-08-25T00:03:12;5.90;;;5.30;;
23802;SDS011;12082;51.786;6.018;2022-08-25T00:05:39;6.77;;;6.17;;
23802;SDS011;12082;51.786;6.018;2022-08-25T00:08:05;7.87;;;7.17;;
23802;SDS011;12082;51.786;6.018;2022-08-25T00:10:32;6.90;;;6.30;;
23802;SDS011;12082;51.786;6.018;2022-08-25T00:13:00;8.77;;;6.57;;
23802;SDS011;12082;51.786;6.018;2022-08-25T00:15:27;7.33;;;6.60;;
23802;SDS011;12082;51.786;6.018;2022-08-25T00:17:55;9.03;;;7.57;;
23802;SDS011;12082;51.786;6.018;2022-08-25T00:20:21;11.40;;;6.73;;
23802;SDS011;12082;51.786;6.018;2022-08-25T00:22:47;12.00;;;7.87;;
23802;SDS011;12082;51.786;6.018;2022-08-25T00:25:13;8.83;;;7.97;;
23802;SDS011;12082;51.786;6.018;2022-08-25T00:27:39;7.83;;;7.03;;
23802;SDS011;12082;51.786;6.018;2022-08-25T00:30:05;7.70;;;7.03;;
23802;SDS011;12082;51.786;6.018;2022-08-25T00:32:31;8.77;;;7.97;;
23802;SDS011;12082;51.786;6.018;2022-08-25T00:34:57;9.80;;;6.73;;
23802;SDS011;12082;51.786;6.018;2022-08-25T00:37:22;7.87;;;7.13;;
23802;SDS011;12082;51.786;6.018;2022-08-25T00:39:48;8.60;;;7.80;;
23802;SDS011;12082;51.786;6.018;2022-08-25T00:42:14;9.40;;;8.47;;
23802;SDS011;12082;51.786;6.018;2022-08-25T00:44:40;11.67;;;9.33;;
23802;SDS011;12082;51.786;6.018;2022-08-25T00:47:07;10.50;;;9.43;;
23802;SDS011;12082;51.786;6.018;2022-08-25T00:49:47;10.30;;;9.23;;
23802;SDS011;12082;51.786;6.018;2022-08-25T00:52:18;11.80;;;10.73;;
23802;SDS011;12082;51.786;6.018;2022-08-25T00:54:51;12.07;;;10.63;;
23802;SDS011;12082;51.786;6.018;2022-08-25T00:57:25;9.30;;;8.53;;
23802;SDS011;12082;51.786;6.018;2022-08-25T00:59:55;9.67;;;8.77;;
23802;SDS011;12082;51.786;6.018;2022-08-25T01:02:21;10.07;;;9.13;;
23802;SDS011;12082;51.786;6.018;2022-08-25T01:04:47;10.40;;;9.40;;
23802;SDS011;12082;51.786;6.018;2022-08-25T01:07:14;11.63;;;10.60;;
23802;SDS011;12082;51.786;6.018;2022-08-25T01:09:42;11.87;;;10.90;;
23802;SDS011;12082;51.786;6.018;2022-08-25T01:12:09;12.63;;;11.53;;
23802;SDS011;12082;51.786;6.018;2022-08-25T01:14:35;13.60;;;11.60;;
23802;SDS011;12082;51.786;6.018;2022-08-25T01:17:02;12.73;;;11.57;;
23802;SDS011;12082;51.786;6.018;2022-08-25T01:19:28;16.20;;;13.57;;
23802;SDS011;12082;51.786;6.018;2022-08-25T01:21:57;13.60;;;12.47;;
23802;SDS011;12082;51.786;6.018;2022-08-25T01:27:01;13.63;;;12.43;;
23802;SDS011;12082;51.786;6.018;2022-08-25T01:29:28;13.30;;;12.10;;
23802;SDS011;12082;51.786;6.018;2022-08-25T01:31:58;13.00;;;11.90;;
23802;SDS011;12082;51.786;6.018;2022-08-25T01:34:28;12.63;;;10.97;;
23802;SDS011;12082;51.786;6.018;2022-08-25T01:36:56;14.20;;;12.93;;
23802;SDS011;12082;51.786;6.018;2022-08-25T01:39:22;12.87;;;11.60;;
23802;SDS011;12082;51.786;6.018;2022-08-25T01:44:35;13.33;;;12.23;;
23802;SDS011;12082;51.786;6.018;2022-08-25T01:47:03;13.17;;;11.97;;
23802;SDS011;12082;51.786;6.018;2022-08-25T01:49:30;13.77;;;12.57;;
23802;SDS011;12082;51.786;6.018;2022-08-25T01:52:00;12.17;;;11.17;;
23802;SDS011;12082;51.786;6.018;2022-08-25T01:54:40;12.40;;;11.30;;
23802;SDS011;12082;51.786;6.018;2022-08-25T01:57:05;13.90;;;12.50;;
23802;SDS011;12082;51.786;6.018;2022-08-25T01:59:33;14.50;;;13.00;;
23802;SDS011;12082;51.786;6.018;2022-08-25T02:01:58;14.30;;;13.10;;
23802;SDS011;12082;51.786;6.018;2022-08-25T02:04:24;14.37;;;12.77;;
23802;SDS011;12082;51.786;6.018;2022-08-25T02:06:50;14.50;;;13.00;;
23802;SDS011;12082;51.786;6.018;2022-08-25T02:09:16;12.63;;;11.53;;
23802;SDS011;12082;51.786;6.018;2022-08-25T02:11:42;13.53;;;12.23;;
23802;SDS011;12082;51.786;6.018;2022-08-25T02:14:10;13.17;;;11.97;;
23802;SDS011;12082;51.786;6.018;2022-08-25T02:16:38;14.40;;;13.03;;
23802;SDS011;12082;51.786;6.018;2022-08-25T02:19:06;13.53;;;12.33;;
23802;SDS011;12082;51.786;6.018;2022-08-25T02:21:34;12.33;;;11.33;;
23802;SDS011;12082;51.786;6.018;2022-08-25T02:24:00;13.20;;;11.97;;
23802;SDS011;12082;51.786;6.018;2022-08-25T02:26:26;12.90;;;11.80;;
23802;SDS011;12082;51.786;6.018;2022-08-25T02:28:53;12.40;;;11.27;;
23802;SDS011;12082;51.786;6.018;2022-08-25T02:31:20;11.50;;;10.50;;
23802;SDS011;12082;51.786;6.018;2022-08-25T02:33:47;13.20;;;12.10;;
23802;SDS011;12082;51.786;6.018;2022-08-25T02:36:13;11.67;;;10.67;;
23802;SDS011;12082;51.786;6.018;2022-08-25T02:38:39;12.47;;;11.17;;
23802;SDS011;12082;51.786;6.018;2022-08-25T02:41:10;12.30;;;11.03;;
23802;SDS011;12082;51.786;6.018;2022-08-25T02:43:38;12.63;;;11.53;;
23802;SDS011;12082;51.786;6.018;2022-08-25T02:46:05;11.60;;;10.43;;
23802;SDS011;12082;51.786;6.018;2022-08-25T02:48:31;11.00;;;10.10;;
23802;SDS011;12082;51.786;6.018;2022-08-25T02:50:58;11.43;;;10.53;;
23802;SDS011;12082;51.786;6.018;2022-08-25T02:53:25;11.30;;;10.33;;
23802;SDS011;12082;51.786;6.018;2022-08-25T02:55:52;10.43;;;9.63;;
23802;SDS011;12082;51.786;6.018;2022-08-25T02:58:18;9.40;;;8.40;;
23802;SDS011;12082;51.786;6.018;2022-08-25T03:00:44;7.53;;;6.67;;
23802;SDS011;12082;51.786;6.018;2022-08-25T03:03:10;7.03;;;6.40;;
23802;SDS011;12082;51.786;6.018;2022-08-25T03:05:37;8.67;;;6.67;;
23802;SDS011;12082;51.786;6.018;2022-08-25T03:08:03;6.77;;;6.07;;
23802;SDS011;12082;51.786;6.018;2022-08-25T03:10:30;6.93;;;6.03;;
23802;SDS011;12082;51.786;6.018;2022-08-25T03:12:56;6.00;;;5.23;;
23802;SDS011;12082;51.786;6.018;2022-08-25T03:15:21;6.93;;;6.03;;
23802;SDS011;12082;51.786;6.018;2022-08-25T03:17:49;8.33;;;7.43;;
23802;SDS011;12082;51.786;6.018;2022-08-25T03:20:16;9.10;;;8.20;;
23802;SDS011;12082;51.786;6.018;2022-08-25T03:22:42;9.70;;;8.90;;
23802;SDS011;12082;51.786;6.018;2022-08-25T03:25:08;11.60;;;10.37;;
23802;SDS011;12082;51.786;6.018;2022-08-25T03:27:53;12.10;;;11.30;;
23802;SDS011;12082;51.786;6.018;2022-08-25T03:30:19;13.70;;;12.70;;
23802;SDS011;12082;51.786;6.018;2022-08-25T03:32:45;15.57;;;14.53;;
23802;SDS011;12082;51.786;6.018;2022-08-25T03:35:11;17.13;;;15.93;;
23802;SDS011;12082;51.786;6.018;2022-08-25T03:37:37;11.13;;;10.40;;
23802;SDS011;12082;51.786;6.018;2022-08-25T03:40:04;7.47;;;5.07;;
23802;SDS011;12082;51.786;6.018;2022-08-25T03:42:31;6.63;;;4.93;;
23802;SDS011;12082;51.786;6.018;2022-08-25T03:44:57;5.67;;;5.17;;
23802;SDS011;12082;51.786;6.018;2022-08-25T03:47:23;5.97;;;5.57;;
23802;SDS011;12082;51.786;6.018;2022-08-25T03:49:50;7.87;;;4.93;;
23802;SDS011;12082;51.786;6.018;2022-08-25T03:52:16;5.20;;;4.70;;
23802;SDS011;12082;51.786;6.018;2022-08-25T03:54:42;4.17;;;3.77;;
23802;SDS011;12082;51.786;6.018;2022-08-25T03:57:08;4.93;;;3.90;;
23802;SDS011;12082;51.786;6.018;2022-08-25T03:59:34;4.03;;;3.70;;
23802;SDS011;12082;51.786;6.018;2022-08-25T04:02:02;6.03;;;4.17;;
23802;SDS011;12082;51.786;6.018;2022-08-25T04:04:28;6.70;;;4.10;;
23802;SDS011;12082;51.786;6.018;2022-08-25T04:06:55;6.80;;;4.50;;
23802;SDS011;12082;51.786;6.018;2022-08-25T04:09:20;5.30;;;4.13;;
23802;SDS011;12082;51.786;6.018;2022-08-25T04:11:46;5.20;;;4.70;;
23802;SDS011;12082;51.786;6.018;2022-08-25T04:14:12;4.60;;;4.20;;
23802;SDS011;12082;51.786;6.018;2022-08-25T04:16:38;5.07;;;4.57;;
23802;SDS011;12082;51.786;6.018;2022-08-25T04:19:05;5.80;;;4.53;;
23802;SDS011;12082;51.786;6.018;2022-08-25T04:21:33;6.67;;;4.87;;
23802;SDS011;12082;51.786;6.018;2022-08-25T04:23:59;5.70;;;5.20;;
23802;SDS011;12082;51.786;6.018;2022-08-25T04:26:27;5.90;;;5.03;;
23802;SDS011;12082;51.786;6.018;2022-08-25T04:28:56;5.90;;;5.33;;
23802;SDS011;12082;51.786;6.018;2022-08-25T04:31:24;6.23;;;5.37;;
23802;SDS011;12082;51.786;6.018;2022-08-25T04:33:50;6.97;;;6.20;;
23802;SDS011;12082;51.786;6.018;2022-08-25T04:36:17;7.20;;;6.50;;
23802;SDS011;12082;51.786;6.018;2022-08-25T04:38:43;7.13;;;6.43;;
23802;SDS011;12082;51.786;6.018;2022-08-25T04:41:10;6.87;;;6.27;;
23802;SDS011;12082;51.786;6.018;2022-08-25T04:43:38;7.07;;;6.47;;
23802;SDS011;12082;51.786;6.018;2022-08-25T04:46:10;7.27;;;6.43;;
23802;SDS011;12082;51.786;6.018;2022-08-25T04:48:37;6.40;;;5.80;;
23802;SDS011;12082;51.786;6.018;2022-08-25T04:51:07;8.13;;;7.33;;
23802;SDS011;12082;51.786;6.018;2022-08-25T04:53:36;7.93;;;7.07;;
23802;SDS011;12082;51.786;6.018;2022-08-25T04:56:06;10.87;;;9.93;;
23802;SDS011;12082;51.786;6.018;2022-08-25T04:58:34;13.43;;;12.33;;
23802;SDS011;12082;51.786;6.018;2022-08-25T05:01:01;14.23;;;12.83;;
23802;SDS011;12082;51.786;6.018;2022-08-25T05:03:31;14.10;;;12.80;;
23802;SDS011;12082;51.786;6.018;2022-08-25T05:05:57;15.23;;;14.03;;
23802;SDS011;12082;51.786;6.018;2022-08-25T05:08:22;15.43;;;14.23;;
23802;SDS011;12082;51.786;6.018;2022-08-25T05:10:48;15.87;;;14.83;;
23802;SDS011;12082;51.786;6.018;2022-08-25T05:13:14;15.93;;;14.33;;
23802;SDS011;12082;51.786;6.018;2022-08-25T05:15:40;15.33;;;14.33;;
23802;SDS011;12082;51.786;6.018;2022-08-25T05:18:16;15.40;;;13.87;;
23802;SDS011;12082;51.786;6.018;2022-08-25T05:20:42;14.57;;;13.17;;
23802;SDS011;12082;51.786;6.018;2022-08-25T05:23:08;15.13;;;13.80;;
23802;SDS011;12082;51.786;6.018;2022-08-25T05:25:34;14.70;;;13.70;;
23802;SDS011;12082;51.786;6.018;2022-08-25T05:27:59;14.50;;;13.50;;
23802;SDS011;12082;51.786;6.018;2022-08-25T05:30:25;16.60;;;15.33;;
23802;SDS011;12082;51.786;6.018;2022-08-25T05:32:51;13.93;;;13.03;;
23802;SDS011;12082;51.786;6.018;2022-08-25T05:35:16;14.47;;;13.47;;
23802;SDS011;12082;51.786;6.018;2022-08-25T05:37:43;13.47;;;12.47;;
23802;SDS011;12082;51.786;6.018;2022-08-25T05:40:09;14.00;;;12.80;;
23802;SDS011;12082;51.786;6.018;2022-08-25T05:42:35;13.77;;;12.77;;
23802;SDS011;12082;51.786;6.018;2022-08-25T05:45:01;14.03;;;12.90;;
23802;SDS011;12082;51.786;6.018;2022-08-25T05:47:27;14.17;;;13.07;;
23802;SDS011;12082;51.786;6.018;2022-08-25T05:49:53;14.50;;;13.33;;
23802;SDS011;12082;51.786;6.018;2022-08-25T05:52:19;14.80;;;13.60;;
23802;SDS011;12082;51.786;6.018;2022-08-25T05:54:44;13.93;;;12.90;;
23802;SDS011;12082;51.786;6.018;2022-08-25T05:57:10;14.77;;;13.47;;
23802;SDS011;12082;51.786;6.018;2022-08-25T05:59:36;13.87;;;12.77;;
23802;SDS011;12082;51.786;6.018;2022-08-25T06:02:02;14.57;;;13.17;;
23802;SDS011;12082;51.786;6.018;2022-08-25T06:05:03;14.97;;;13.80;;
23802;SDS011;12082;51.786;6.018;2022-08-25T06:07:28;18.07;;;16.20;;
23802;SDS011;12082;51.786;6.018;2022-08-25T06:09:54;19.73;;;18.37;;
23802;SDS011;12082;51.786;6.018;2022-08-25T06:12:20;9.47;;;8.60;;
23802;SDS011;12082;51.786;6.018;2022-08-25T06:14:46;8.80;;;6.40;;
23802;SDS011;12082;51.786;6.018;2022-08-25T06:17:13;7.60;;;6.63;;
23802;SDS011;12082;51.786;6.018;2022-08-25T06:19:39;9.50;;;7.00;;
23802;SDS011;12082;51.786;6.018;2022-08-25T06:22:05;9.97;;;5.63;;
23802;SDS011;12082;51.786;6.018;2022-08-25T06:24:30;9.57;;;5.80;;
23802;SDS011;12082;51.786;6.018;2022-08-25T06:26:57;8.63;;;6.10;;
23802;SDS011;12082;51.786;6.018;2022-08-25T06:29:23;10.00;;;5.23;;
23802;SDS011;12082;51.786;6.018;2022-08-25T06:31:49;17.63;;;16.50;;
23802;SDS011;12082;51.786;6.018;2022-08-25T06:34:15;14.00;;;12.63;;
23802;SDS011;12082;51.786;6.018;2022-08-25T06:36:42;12.70;;;6.67;;
23802;SDS011;12082;51.786;6.018;2022-08-25T06:39:08;11.00;;;5.90;;
23802;SDS011;12082;51.786;6.018;2022-08-25T06:41:35;21.90;;;20.13;;
23802;SDS011;12082;51.786;6.018;2022-08-25T06:44:01;11.37;;;10.27;;
23802;SDS011;12082;51.786;6.018;2022-08-25T06:46:27;8.63;;;4.90;;
23802;SDS011;12082;51.786;6.018;2022-08-25T06:48:55;5.73;;;3.90;;
23802;SDS011;12082;51.786;6.018;2022-08-25T06:51:21;5.27;;;3.90;;
23802;SDS011;12082;51.786;6.018;2022-08-25T06:53:49;6.10;;;3.97;;
23802;SDS011;12082;51.786;6.018;2022-08-25T06:56:15;8.47;;;4.80;;
23802;SDS011;12082;51.786;6.018;2022-08-25T06:58:42;9.60;;;5.80;;
23802;SDS011;12082;51.786;6.018;2022-08-25T07:01:15;26.77;;;25.00;;
23802;SDS011;12082;51.786;6.018;2022-08-25T07:03:47;39.13;;;36.93;;
23802;SDS011;12082;51.786;6.018;2022-08-25T07:06:14;36.13;;;33.73;;
23802;SDS011;12082;51.786;6.018;2022-08-25T07:08:42;22.23;;;20.77;;
23802;SDS011;12082;51.786;6.018;2022-08-25T07:11:08;8.57;;;7.13;;
23802;SDS011;12082;51.786;6.018;2022-08-25T07:13:34;13.20;;;10.03;;
23802;SDS011;12082;51.786;6.018;2022-08-25T07:16:01;9.07;;;8.27;;
23802;SDS011;12082;51.786;6.018;2022-08-25T07:18:28;11.83;;;9.97;;
23802;SDS011;12082;51.786;6.018;2022-08-25T07:20:54;22.00;;;20.40;;
23802;SDS011;12082;51.786;6.018;2022-08-25T07:23:20;8.63;;;6.53;;
23802;SDS011;12082;51.786;6.018;2022-08-25T07:25:46;8.67;;;3.37;;
23802;SDS011;12082;51.786;6.018;2022-08-25T07:28:12;12.40;;;4.03;;
23802;SDS011;12082;51.786;6.018;2022-08-25T07:30:39;6.20;;;3.20;;
23802;SDS011;12082;51.786;6.018;2022-08-25T07:33:04;8.63;;;7.93;;
23802;SDS011;12082;51.786;6.018;2022-08-25T07:35:30;9.88;;;7.13;;
23802;SDS011;12082;51.786;6.018;2022-08-25T07:37:56;5.57;;;4.40;;
23802;SDS011;12082;51.786;6.018;2022-08-25T07:40:24;6.85;;;4.95;;
23802;SDS011;12082;51.786;6.018;2022-08-25T07:42:53;7.70;;;4.82;;
23802;SDS011;12082;51.786;6.018;2022-08-25T07:45:20;5.75;;;5.22;;
23802;SDS011;12082;51.786;6.018;2022-08-25T07:47:54;5.95;;;5.25;;
23802;SDS011;12082;51.786;6.018;2022-08-25T07:50:22;9.13;;;7.20;;
23802;SDS011;12082;51.786;6.018;2022-08-25T07:52:48;10.18;;;9.27;;
23802;SDS011;12082;51.786;6.018;2022-08-25T07:55:13;13.13;;;11.80;;
23802;SDS011;12082;51.786;6.018;2022-08-25T07:57:39;28.13;;;26.05;;
23802;SDS011;12082;51.786;6.018;2022-08-25T08:00:06;30.88;;;28.75;;
23802;SDS011;12082;51.786;6.018;2022-08-25T08:02:33;25.17;;;23.63;;
23802;SDS011;12082;51.786;6.018;2022-08-25T08:04:59;25.75;;;24.17;;
23802;SDS011;12082;51.786;6.018;2022-08-25T08:07:25;25.60;;;23.75;;
23802;SDS011;12082;51.786;6.018;2022-08-25T08:09:51;27.25;;;25.52;;
23802;SDS011;12082;51.786;6.018;2022-08-25T08:12:17;33.42;;;31.73;;
23802;SDS011;12082;51.786;6.018;2022-08-25T08:14:43;27.40;;;25.73;;
23802;SDS011;12082;51.786;6.018;2022-08-25T08:17:09;34.22;;;31.98;;
23802;SDS011;12082;51.786;6.018;2022-08-25T08:19:36;25.52;;;23.63;;
23802;SDS011;12082;51.786;6.018;2022-08-25T08:22:03;66.97;;;63.35;;
23802;SDS011;12082;51.786;6.018;2022-08-25T08:24:30;70.93;;;66.95;;
23802;SDS011;12082;51.786;6.018;2022-08-25T08:27:02;91.63;;;86.93;;
23802;SDS011;12082;51.786;6.018;2022-08-25T08:29:32;111.95;;;106.35;;
23802;SDS011;12082;51.786;6.018;2022-08-25T08:32:02;121.57;;;115.43;;
23802;SDS011;12082;51.786;6.018;2022-08-25T08:34:30;120.18;;;114.20;;
23802;SDS011;12082;51.786;6.018;2022-08-25T08:36:55;111.13;;;105.47;;
23802;SDS011;12082;51.786;6.018;2022-08-25T08:39:21;102.75;;;97.68;;
23802;SDS011;12082;51.786;6.018;2022-08-25T08:50:14;96.32;;;91.10;;
23802;SDS011;12082;51.786;6.018;2022-08-25T08:52:51;73.13;;;69.18;;
23802;SDS011;12082;51.786;6.018;2022-08-25T08:55:23;80.97;;;76.63;;
23802;SDS011;12082;51.786;6.018;2022-08-25T08:58:00;70.25;;;66.38;;
23802;SDS011;12082;51.786;6.018;2022-08-25T09:00:30;47.47;;;44.88;;
23802;SDS011;12082;51.786;6.018;2022-08-25T09:03:05;42.22;;;39.47;;
23802;SDS011;12082;51.786;6.018;2022-08-25T09:05:35;32.92;;;30.90;;
23802;SDS011;12082;51.786;6.018;2022-08-25T09:08:24;46.47;;;43.97;;
23802;SDS011;12082;51.786;6.018;2022-08-25T09:10:58;56.28;;;53.42;;
23802;SDS011;12082;51.786;6.018;2022-08-25T09:16:31;113.40;;;107.47;;
23802;SDS011;12082;51.786;6.018;2022-08-25T09:27:39;27.20;;;25.20;;
23802;SDS011;12082;51.786;6.018;2022-08-25T09:30:13;28.30;;;26.50;;
23802;SDS011;12082;51.786;6.018;2022-08-25T09:32:42;24.33;;;22.67;;
23802;SDS011;12082;51.786;6.018;2022-08-25T09:35:24;25.98;;;24.48;;
23802;SDS011;12082;51.786;6.018;2022-08-25T09:37:59;28.45;;;26.95;;
23802;SDS011;12082;51.786;6.018;2022-08-25T09:40:31;28.25;;;26.50;;
23802;SDS011;12082;51.786;6.018;2022-08-25T09:43:03;27.55;;;25.85;;
23802;SDS011;12082;51.786;6.018;2022-08-25T09:45:34;26.63;;;24.92;;
23802;SDS011;12082;51.786;6.018;2022-08-25T09:50:52;27.67;;;25.63;;
23802;SDS011;12082;51.786;6.018;2022-08-25T09:53:23;29.50;;;27.75;;
23802;SDS011;12082;51.786;6.018;2022-08-25T09:55:59;29.30;;;27.10;;
23802;SDS011;12082;51.786;6.018;2022-08-25T09:58:28;26.45;;;24.83;;
23802;SDS011;12082;51.786;6.018;2022-08-25T10:03:37;29.33;;;27.42;;
23802;SDS011;12082;51.786;6.018;2022-08-25T10:06:17;27.15;;;25.45;;
23802;SDS011;12082;51.786;6.018;2022-08-25T10:11:09;25.88;;;24.42;;
23802;SDS011;12082;51.786;6.018;2022-08-25T10:16:27;26.98;;;24.63;;
23802;SDS011;12082;51.786;6.018;2022-08-25T10:19:08;25.83;;;24.27;;
23802;SDS011;12082;51.786;6.018;2022-08-25T10:22:00;28.23;;;26.50;;
23802;SDS011;12082;51.786;6.018;2022-08-25T10:24:29;27.67;;;26.17;;
23802;SDS011;12082;51.786;6.018;2022-08-25T10:32:08;26.05;;;24.48;;
23802;SDS011;12082;51.786;6.018;2022-08-25T10:34:57;24.67;;;23.15;;
23802;SDS011;12082;51.786;6.018;2022-08-25T10:40:27;23.00;;;21.50;;
23802;SDS011;12082;51.786;6.018;2022-08-25T10:45:32;22.33;;;21.02;;
23802;SDS011;12082;51.786;6.018;2022-08-25T10:56:40;26.58;;;25.08;;
23802;SDS011;12082;51.786;6.018;2022-08-25T11:02:36;19.60;;;18.35;;
23802;SDS011;12082;51.786;6.018;2022-08-25T11:05:24;18.80;;;17.42;;
23802;SDS011;12082;51.786;6.018;2022-08-25T11:10:39;20.35;;;19.35;;
23802;SDS011;12082;51.786;6.018;2022-08-25T11:13:09;26.67;;;25.05;;
23802;SDS011;12082;51.786;6.018;2022-08-25T11:15:44;19.02;;;18.08;;
23802;SDS011;12082;51.786;6.018;2022-08-25T11:18:16;18.92;;;18.02;;
23802;SDS011;12082;51.786;6.018;2022-08-25T11:20:58;20.63;;;19.52;;
23802;SDS011;12082;51.786;6.018;2022-08-25T11:23:37;32.17;;;20.77;;
23802;SDS011;12082;51.786;6.018;2022-08-25T11:26:18;18.10;;;17.10;;
23802;SDS011;12082;51.786;6.018;2022-08-25T11:28:57;24.52;;;23.15;;
23802;SDS011;12082;51.786;6.018;2022-08-25T11:31:24;25.38;;;23.88;;
23802;SDS011;12082;51.786;6.018;2022-08-25T11:33:51;18.23;;;17.10;;
23802;SDS011;12082;51.786;6.018;2022-08-25T11:36:30;24.25;;;22.85;;
23802;SDS011;12082;51.786;6.018;2022-08-25T11:50:01;15.98;;;14.98;;
23802;SDS011;12082;51.786;6.018;2022-08-25T11:52:50;17.83;;;16.55;;
23802;SDS011;12082;51.786;6.018;2022-08-25T11:55:25;18.42;;;17.13;;
23802;SDS011;12082;51.786;6.018;2022-08-25T12:00:52;15.65;;;14.75;;
23802;SDS011;12082;51.786;6.018;2022-08-25T12:08:54;16.75;;;15.85;;
23802;SDS011;12082;51.786;6.018;2022-08-25T12:11:50;25.65;;;24.10;;
23802;SDS011;12082;51.786;6.018;2022-08-25T12:19:25;52.03;;;49.40;;
23802;SDS011;12082;51.786;6.018;2022-08-25T12:27:07;32.25;;;30.42;;
23802;SDS011;12082;51.786;6.018;2022-08-25T12:29:44;49.30;;;46.92;;
23802;SDS011;12082;51.786;6.018;2022-08-25T12:35:23;53.50;;;50.88;;
23802;SDS011;12082;51.786;6.018;2022-08-25T12:37:54;50.90;;;48.22;;
23802;SDS011;12082;51.786;6.018;2022-08-25T12:40:29;40.65;;;38.47;;
23802;SDS011;12082;51.786;6.018;2022-08-25T12:45:52;29.98;;;28.45;;
23802;SDS011;12082;51.786;6.018;2022-08-25T12:50:55;40.75;;;38.58;;
23802;SDS011;12082;51.786;6.018;2022-08-25T12:56:05;54.13;;;51.28;;
23802;SDS011;12082;51.786;6.018;2022-08-25T12:59:10;54.90;;;52.17;;
23802;SDS011;12082;51.786;6.018;2022-08-25T13:04:19;69.93;;;66.60;;
23802;SDS011;12082;51.786;6.018;2022-08-25T13:15:26;77.38;;;73.65;;
23802;SDS011;12082;51.786;6.018;2022-08-25T13:20:43;84.18;;;79.97;;
23802;SDS011;12082;51.786;6.018;2022-08-25T13:23:10;87.25;;;82.95;;
23802;SDS011;12082;51.786;6.018;2022-08-25T13:25:37;83.50;;;79.50;;
23802;SDS011;12082;51.786;6.018;2022-08-25T13:28:18;80.45;;;76.50;;
23802;SDS011;12082;51.786;6.018;2022-08-25T13:30:49;79.38;;;75.43;;
23802;SDS011;12082;51.786;6.018;2022-08-25T13:33:29;91.28;;;86.85;;
23802;SDS011;12082;51.786;6.018;2022-08-25T13:35:57;75.18;;;71.63;;
23802;SDS011;12082;51.786;6.018;2022-08-25T13:38:47;67.68;;;63.97;;
23802;SDS011;12082;51.786;6.018;2022-08-25T13:41:17;71.03;;;67.13;;
23802;SDS011;12082;51.786;6.018;2022-08-25T13:43:45;50.30;;;47.35;;
23802;SDS011;12082;51.786;6.018;2022-08-25T13:46:10;49.58;;;47.08;;
23802;SDS011;12082;51.786;6.018;2022-08-25T13:48:37;61.70;;;58.78;;
23802;SDS011;12082;51.786;6.018;2022-08-25T13:51:25;45.08;;;42.83;;
23802;SDS011;12082;51.786;6.018;2022-08-25T13:53:52;44.47;;;42.20;;
23802;SDS011;12082;51.786;6.018;2022-08-25T13:56:30;40.17;;;38.22;;
23802;SDS011;12082;51.786;6.018;2022-08-25T13:58:59;46.92;;;44.08;;
23802;SDS011;12082;51.786;6.018;2022-08-25T14:01:28;24.17;;;22.98;;
23802;SDS011;12082;51.786;6.018;2022-08-25T14:04:29;15.50;;;14.60;;
23802;SDS011;12082;51.786;6.018;2022-08-25T14:09:45;7.57;;;7.07;;
23802;SDS011;12082;51.786;6.018;2022-08-25T14:15:30;8.00;;;7.50;;
23802;SDS011;12082;51.786;6.018;2022-08-25T14:20:51;9.02;;;7.78;;
23802;SDS011;12082;51.786;6.018;2022-08-25T14:23:19;7.88;;;7.32;;
23802;SDS011;12082;51.786;6.018;2022-08-25T14:25:47;6.63;;;6.00;;
23802;SDS011;12082;51.786;6.018;2022-08-25T14:28:17;7.00;;;6.53;;
23802;SDS011;12082;51.786;6.018;2022-08-25T14:30:53;6.60;;;2.95;;
23802;SDS011;12082;51.786;6.018;2022-08-25T14:33:23;5.10;;;4.80;;
23802;SDS011;12082;51.786;6.018;2022-08-25T14:35:53;5.30;;;4.80;;
23802;SDS011;12082;51.786;6.018;2022-08-25T14:38:22;7.13;;;6.72;;
23802;SDS011;12082;51.786;6.018;2022-08-25T14:40:48;8.52;;;5.78;;
23802;SDS011;12082;51.786;6.018;2022-08-25T14:43:15;5.90;;;5.50;;
23802;SDS011;12082;51.786;6.018;2022-08-25T14:45:41;3.00;;;2.15;;
23802;SDS011;12082;51.786;6.018;2022-08-25T14:48:10;4.43;;;4.13;;
23802;SDS011;12082;51.786;6.018;2022-08-25T14:50:42;3.95;;;3.55;;
23802;SDS011;12082;51.786;6.018;2022-08-25T14:53:09;2.50;;;2.22;;
23802;SDS011;12082;51.786;6.018;2022-08-25T14:55:35;2.78;;;2.58;;
23802;SDS011;12082;51.786;6.018;2022-08-25T14:58:02;3.53;;;3.22;;
23802;SDS011;12082;51.786;6.018;2022-08-25T15:00:28;2.75;;;2.53;;
23802;SDS011;12082;51.786;6.018;2022-08-25T15:02:54;4.00;;;2.28;;
23802;SDS011;12082;51.786;6.018;2022-08-25T15:05:20;5.60;;;2.53;;
23802;SDS011;12082;51.786;6.018;2022-08-25T15:07:51;4.63;;;2.70;;
23802;SDS011;12082;51.786;6.018;2022-08-25T15:10:36;3.70;;;3.35;;
23802;SDS011;12082;51.786;6.018;2022-08-25T15:13:02;2.70;;;1.90;;
23802;SDS011;12082;51.786;6.018;2022-08-25T15:15:30;3.15;;;2.22;;
23802;SDS011;12082;51.786;6.018;2022-08-25T15:17:57;1.98;;;1.80;;
23802;SDS011;12082;51.786;6.018;2022-08-25T15:20:24;2.60;;;2.40;;
23802;SDS011;12082;51.786;6.018;2022-08-25T15:22:50;4.55;;;1.90;;
23802;SDS011;12082;51.786;6.018;2022-08-25T15:25:16;4.50;;;2.63;;
23802;SDS011;12082;51.786;6.018;2022-08-25T15:27:42;4.10;;;3.00;;
23802;SDS011;12082;51.786;6.018;2022-08-25T15:30:08;3.10;;;2.72;;
23802;SDS011;12082;51.786;6.018;2022-08-25T15:32:34;3.75;;;2.38;;
23802;SDS011;12082;51.786;6.018;2022-08-25T15:35:01;6.65;;;5.80;;
23802;SDS011;12082;51.786;6.018;2022-08-25T15:37:26;5.50;;;5.10;;
23802;SDS011;12082;51.786;6.018;2022-08-25T15:39:52;3.65;;;3.35;;
23802;SDS011;12082;51.786;6.018;2022-08-25T15:42:18;6.00;;;5.43;;
23802;SDS011;12082;51.786;6.018;2022-08-25T15:44:44;6.85;;;6.45;;
23802;SDS011;12082;51.786;6.018;2022-08-25T15:47:10;13.77;;;12.70;;
23802;SDS011;12082;51.786;6.018;2022-08-25T15:49:35;19.02;;;17.63;;
23802;SDS011;12082;51.786;6.018;2022-08-25T15:52:01;6.57;;;6.28;;
23802;SDS011;12082;51.786;6.018;2022-08-25T15:54:27;6.70;;;6.30;;
23802;SDS011;12082;51.786;6.018;2022-08-25T15:56:54;9.90;;;9.15;;
23802;SDS011;12082;51.786;6.018;2022-08-25T15:59:21;14.57;;;13.82;;
23802;SDS011;12082;51.786;6.018;2022-08-25T16:01:47;19.95;;;18.90;;
23802;SDS011;12082;51.786;6.018;2022-08-25T16:04:13;32.08;;;30.45;;
23802;SDS011;12082;51.786;6.018;2022-08-25T16:06:38;16.00;;;15.13;;
23802;SDS011;12082;51.786;6.018;2022-08-25T16:09:04;20.90;;;19.83;;
23802;SDS011;12082;51.786;6.018;2022-08-25T16:11:31;9.75;;;9.25;;
23802;SDS011;12082;51.786;6.018;2022-08-25T16:13:58;10.95;;;10.10;;
23802;SDS011;12082;51.786;6.018;2022-08-25T16:16:25;10.07;;;9.43;;
23802;SDS011;12082;51.786;6.018;2022-08-25T16:18:53;11.88;;;11.18;;
23802;SDS011;12082;51.786;6.018;2022-08-25T16:21:20;16.70;;;15.68;;
23802;SDS011;12082;51.786;6.018;2022-08-25T16:23:54;39.22;;;37.33;;
23802;SDS011;12082;51.786;6.018;2022-08-25T16:26:21;54.45;;;51.75;;
23802;SDS011;12082;51.786;6.018;2022-08-25T16:28:47;67.00;;;63.90;;
23802;SDS011;12082;51.786;6.018;2022-08-25T16:31:13;48.63;;;46.00;;
23802;SDS011;12082;51.786;6.018;2022-08-25T16:33:40;81.70;;;77.80;;
23802;SDS011;12082;51.786;6.018;2022-08-25T16:36:14;87.28;;;83.10;;
23802;SDS011;12082;51.786;6.018;2022-08-25T16:38:42;84.40;;;80.43;;
23802;SDS011;12082;51.786;6.018;2022-08-25T16:41:09;80.63;;;76.78;;
23802;SDS011;12082;51.786;6.018;2022-08-25T16:43:36;74.30;;;70.55;;
23802;SDS011;12082;51.786;6.018;2022-08-25T16:46:06;58.45;;;55.70;;